Time;durP1;ratioP1;P1;durP2;ratioP2;P2;SDS_P1;SDS_P2;PMS_P1;PMS_P2;Temp;Humidity;BMP_temperature;BMP_pressure;BME280_temperature;BME280_humidity;BME280_pressure;Samples;Min_cycle;Max_cycle;Signal;HPM_P1;HPM_P2
2022/11/23 00:01:31;;;;;;;0.00;0.00;;;4.80;99.90;;;;;;5064135;28;20434;-74
2022/11/23 00:04:02;;;;;;;0.10;0.10;;;4.70;99.90;;;;;;5056917;28;20532;-74
2022/11/23 00:06:29;;;;;;;0.08;0.08;;;4.70;99.90;;;;;;5070097;28;20438;-74
2022/11/23 00:08:56;;;;;;;1.10;0.30;;;4.60;99.90;;;;;;5063885;28;20439;-74
2022/11/23 00:11:24;;;;;;;0.20;0.10;;;4.60;99.90;;;;;;5057507;28;20429;-73
2022/11/23 00:13:52;;;;;;;1.70;0.40;;;4.60;99.90;;;;;;5059722;28;20550;-74
2022/11/23 00:16:24;;;;;;;0.22;0.22;;;4.70;99.90;;;;;;5067744;28;20430;-74
2022/11/23 00:18:56;;;;;;;0.20;0.20;;;4.70;99.90;;;;;;5063618;28;20500;-74
2022/11/23 00:21:24;;;;;;;0.10;0.10;;;4.80;99.90;;;;;;5053795;28;20517;-74
2022/11/23 00:23:51;;;;;;;0.30;0.30;;;4.80;99.90;;;;;;5054609;28;20873;-74
2022/11/23 00:26:21;;;;;;;2.10;0.80;;;4.80;99.90;;;;;;5057622;28;20429;-74
2022/11/23 00:28:48;;;;;;;0.30;0.13;;;4.90;99.90;;;;;;5058009;28;20486;-74
2022/11/23 00:31:18;;;;;;;0.20;0.20;;;4.90;99.90;;;;;;5069872;28;20431;-74
2022/11/23 00:33:54;;;;;;;0.20;0.20;;;5.00;99.90;;;;;;5065087;28;20500;-74
2022/11/23 00:36:22;;;;;;;4.90;0.35;;;5.00;99.90;;;;;;5065516;28;20448;-74
2022/11/23 00:38:50;;;;;;;0.50;0.50;;;5.00;99.90;;;;;;5076679;28;21115;-74
2022/11/23 00:41:20;;;;;;;0.30;0.30;;;5.00;98.20;;;;;;5063194;28;20435;-74
2022/11/23 00:43:47;;;;;;;0.40;0.40;;;5.00;77.80;;;;;;5062282;28;20928;-75
2022/11/23 00:46:16;;;;;;;0.30;0.30;;;5.00;46.50;;;;;;5069325;28;20439;-74
2022/11/23 00:48:44;;;;;;;0.20;0.20;;;5.10;26.00;;;;;;5056988;28;20429;-74
2022/11/23 00:51:14;;;;;;;3.00;0.63;;;5.00;1.00;;;;;;5061523;28;20423;-74
2022/11/23 00:53:41;;;;;;;1.60;0.60;;;5.10;1.00;;;;;;5066061;28;20453;-74
2022/11/23 00:56:08;;;;;;;0.28;0.28;;;5.10;1.00;;;;;;5058769;28;20507;-74
2022/11/23 00:58:37;;;;;;;0.60;0.45;;;5.10;1.00;;;;;;5058324;28;20433;-74
2022/11/23 01:01:13;;;;;;;0.55;0.55;;;5.00;1.00;;;;;;5062669;28;20876;-74
2022/11/23 01:03:45;;;;;;;0.15;0.15;;;5.10;1.00;;;;;;5059160;28;20425;-74
2022/11/23 01:06:24;;;;;;;0.10;0.10;;;5.10;1.00;;;;;;5067839;28;20507;-74
2022/11/23 01:08:56;;;;;;;0.60;0.40;;;5.10;1.00;;;;;;5065018;28;20432;-74
2022/11/23 01:11:25;;;;;;;2.60;0.40;;;5.10;1.00;;;;;;5063937;28;20438;-73
2022/11/23 01:13:52;;;;;;;0.10;0.10;;;5.10;1.00;;;;;;5052148;28;20505;-74
2022/11/23 01:16:25;;;;;;;0.50;0.50;;;5.10;1.00;;;;;;5067642;28;20439;-74
2022/11/23 01:18:56;;;;;;;0.10;0.10;;;5.10;1.00;;;;;;5069624;28;20517;-74
2022/11/23 01:21:25;;;;;;;0.10;0.10;;;5.10;1.00;;;;;;5058939;28;20435;-74
2022/11/23 01:23:52;;;;;;;0.10;0.10;;;5.10;1.00;;;;;;5069747;28;20521;-74
2022/11/23 01:26:19;;;;;;;0.10;0.10;;;5.20;1.00;;;;;;5058616;28;20453;-74
2022/11/23 01:28:47;;;;;;;0.10;0.10;;;5.20;1.00;;;;;;5059287;28;20435;-75
2022/11/23 01:31:19;;;;;;;0.40;0.40;;;5.20;1.00;;;;;;5061386;28;20527;-75
2022/11/23 01:33:46;;;;;;;0.00;0.00;;;5.20;1.00;;;;;;5057806;28;20956;-74
2022/11/23 01:36:18;;;;;;;0.10;0.10;;;5.10;1.00;;;;;;5061510;28;20929;-75
2022/11/23 01:38:46;;;;;;;0.13;0.13;;;5.20;1.00;;;;;;5068858;28;20789;-74
2022/11/23 01:41:16;;;;;;;0.20;0.20;;;5.20;1.00;;;;;;5056925;28;20427;-74
2022/11/23 01:43:43;;;;;;;0.00;0.00;;;5.20;1.00;;;;;;5054599;28;20530;-74
2022/11/23 01:46:19;;;;;;;0.00;0.00;;;5.20;1.00;;;;;;5053891;28;20429;-74
2022/11/23 01:48:56;;;;;;;0.00;0.00;;;5.20;1.00;;;;;;5064063;28;20433;-74
2022/11/23 01:51:30;;;;;;;0.10;0.10;;;5.20;1.00;;;;;;5068233;28;21080;-74
2022/11/23 01:54:01;;;;;;;0.50;0.50;;;5.30;1.00;;;;;;5059118;28;20904;-74
2022/11/23 01:56:32;;;;;;;0.25;0.25;;;5.30;1.00;;;;;;5060656;28;20438;-73
2022/11/23 01:59:03;;;;;;;0.10;0.10;;;5.30;1.00;;;;;;5056676;28;20439;-72
2022/11/23 02:01:30;;;;;;;2.00;0.88;;;5.30;1.00;;;;;;5064577;28;20443;-73
2022/11/23 02:03:59;;;;;;;0.60;0.40;;;5.30;1.00;;;;;;5062530;28;20429;-73
2022/11/23 02:06:26;;;;;;;0.10;0.10;;;5.40;99.90;;;;;;5059943;28;20469;-73
2022/11/23 02:08:54;;;;;;;0.10;0.10;;;5.40;99.90;;;;;;5057708;28;20455;-73
2022/11/23 02:11:21;;;;;;;0.30;0.30;;;5.40;99.90;;;;;;5061382;28;20417;-73
2022/11/23 02:13:49;;;;;;;0.60;0.20;;;5.40;99.90;;;;;;5064783;28;20766;-73
2022/11/23 02:16:18;;;;;;;4.50;0.40;;;5.40;99.90;;;;;;5057599;28;20429;-73
2022/11/23 02:18:47;;;;;;;0.80;0.80;;;5.50;99.90;;;;;;5060738;28;20444;-74
2022/11/23 02:21:14;;;;;;;1.70;0.50;;;5.40;99.90;;;;;;5055935;28;20432;-73
2022/11/23 02:24:02;;;;;;;0.20;0.20;;;5.50;99.90;;;;;;5060420;28;20433;-73
2022/11/23 02:26:32;;;;;;;0.20;0.20;;;5.50;99.90;;;;;;5064066;28;20435;-73
2022/11/23 02:29:21;;;;;;;0.17;0.17;;;5.50;99.90;;;;;;5070970;28;20910;-73
2022/11/23 02:31:47;;;;;;;0.20;0.20;;;5.50;99.90;;;;;;5066317;28;20425;-73
2022/11/23 02:34:16;;;;;;;0.17;0.17;;;5.50;99.90;;;;;;5064736;28;20424;-73
2022/11/23 02:36:51;;;;;;;0.10;0.10;;;5.50;99.90;;;;;;5055261;28;20452;-72
2022/11/23 02:39:43;;;;;;;0.05;0.05;;;5.50;99.90;;;;;;5063455;28;20427;-73
2022/11/23 02:42:10;;;;;;;0.00;0.00;;;5.50;99.90;;;;;;5061423;28;21059;-73
2022/11/23 02:44:59;;;;;;;0.90;0.10;;;5.50;99.90;;;;;;5060426;28;20431;-73
2022/11/23 02:47:26;;;;;;;0.00;0.00;;;5.50;99.90;;;;;;5063807;28;20849;-74
2022/11/23 02:49:53;;;;;;;0.20;0.20;;;5.50;99.90;;;;;;5058911;28;20435;-74
2022/11/23 02:52:19;;;;;;;0.50;0.50;;;5.50;99.90;;;;;;5054711;28;20420;-74
2022/11/23 02:54:46;;;;;;;0.52;0.52;;;5.50;99.90;;;;;;5058937;28;20425;-73
2022/11/23 02:57:13;;;;;;;0.10;0.10;;;5.40;99.90;;;;;;5061942;28;20760;-74
2022/11/23 02:59:40;;;;;;;0.20;0.20;;;5.40;99.90;;;;;;5065070;28;20439;-74
2022/11/23 03:02:07;;;;;;;0.10;0.10;;;5.40;99.90;;;;;;5061036;28;20433;-73
2022/11/23 03:04:33;;;;;;;0.08;0.08;;;5.40;99.90;;;;;;5056224;28;20522;-73
2022/11/23 03:07:00;;;;;;;0.10;0.10;;;5.40;99.90;;;;;;5058170;28;20428;-73
2022/11/23 03:09:27;;;;;;;0.10;0.10;;;5.40;99.90;;;;;;5049460;28;20435;-73
2022/11/23 03:11:56;;;;;;;0.00;0.00;;;5.40;99.90;;;;;;5065048;28;20462;-74
2022/11/23 03:14:24;;;;;;;0.40;0.40;;;5.40;99.90;;;;;;5063507;28;20441;-73
2022/11/23 03:16:53;;;;;;;1.55;0.28;;;5.40;99.90;;;;;;5056501;28;20437;-73
2022/11/23 03:19:20;;;;;;;0.10;0.10;;;5.40;99.90;;;;;;5080308;28;20437;-73
2022/11/23 03:21:47;;;;;;;0.17;0.17;;;5.40;99.90;;;;;;5062112;28;20429;-73
2022/11/23 03:24:14;;;;;;;0.10;0.10;;;5.40;99.90;;;;;;5062057;28;20427;-73
2022/11/23 03:26:40;;;;;;;0.17;0.17;;;5.40;99.90;;;;;;5060849;28;20427;-73
2022/11/23 03:29:13;;;;;;;0.30;0.30;;;5.40;99.90;;;;;;5061535;28;20431;-73
2022/11/23 03:31:40;;;;;;;4.70;1.10;;;5.40;99.90;;;;;;5069278;28;20503;-74
2022/11/23 03:34:09;;;;;;;1.80;0.40;;;5.40;99.90;;;;;;5056775;28;20508;-73
2022/11/23 03:36:35;;;;;;;4.50;0.30;;;5.40;99.90;;;;;;5058442;28;20425;-73
2022/11/23 03:39:02;;;;;;;0.30;0.30;;;5.40;99.90;;;;;;5053970;28;20506;-73
2022/11/23 03:41:29;;;;;;;0.10;0.10;;;5.30;99.90;;;;;;5060914;28;20431;-74
2022/11/23 03:43:56;;;;;;;1.60;0.50;;;5.40;99.90;;;;;;5074623;28;20437;-73
2022/11/23 03:46:30;;;;;;;0.30;0.30;;;5.30;99.90;;;;;;5061840;28;20421;-73
2022/11/23 03:48:57;;;;;;;0.17;0.17;;;5.30;99.90;;;;;;5063336;28;20439;-73
2022/11/23 03:51:23;;;;;;;0.60;0.60;;;5.40;99.90;;;;;;5055523;28;20429;-73
2022/11/23 03:53:50;;;;;;;0.20;0.20;;;5.40;99.90;;;;;;5074520;28;20431;-74
2022/11/23 03:56:17;;;;;;;0.20;0.20;;;5.40;99.90;;;;;;5061554;28;20428;-74
2022/11/23 03:58:44;;;;;;;0.45;0.45;;;5.30;99.90;;;;;;5066145;28;20431;-74
2022/11/23 04:01:11;;;;;;;0.10;0.10;;;5.40;99.90;;;;;;5060474;28;20430;-74
2022/11/23 04:03:40;;;;;;;0.55;0.55;;;5.40;99.90;;;;;;5069247;28;20436;-74
2022/11/23 04:06:10;;;;;;;0.10;0.10;;;5.30;99.90;;;;;;5055181;28;20423;-73
2022/11/23 04:08:37;;;;;;;0.10;0.10;;;5.40;99.90;;;;;;5060076;28;20427;-73
2022/11/23 04:11:03;;;;;;;0.20;0.20;;;5.40;99.90;;;;;;5061908;28;20433;-74
2022/11/23 04:13:30;;;;;;;0.70;0.15;;;5.40;99.90;;;;;;5061994;28;20429;-73
2022/11/23 04:15:57;;;;;;;0.10;0.10;;;5.40;99.90;;;;;;5070243;28;21001;-74
2022/11/23 04:18:23;;;;;;;0.10;0.10;;;5.50;99.90;;;;;;5064102;28;20975;-73
2022/11/23 04:20:50;;;;;;;0.20;0.20;;;5.40;99.90;;;;;;5065031;28;20535;-74
2022/11/23 04:23:17;;;;;;;0.30;0.30;;;5.40;99.90;;;;;;5069125;28;20500;-74
2022/11/23 04:25:45;;;;;;;0.30;0.20;;;5.50;99.90;;;;;;5060808;28;20425;-73
2022/11/23 04:28:11;;;;;;;3.20;0.60;;;5.50;99.90;;;;;;5066431;28;20435;-73
2022/11/23 04:30:41;;;;;;;0.20;0.20;;;5.50;52.60;;;;;;5056107;28;20521;-73
2022/11/23 04:33:08;;;;;;;0.10;0.10;;;5.40;13.60;;;;;;5063391;28;20454;-73
2022/11/23 04:35:36;;;;;;;0.10;0.10;;;5.40;1.00;;;;;;5065513;28;20910;-73
2022/11/23 04:38:02;;;;;;;0.30;0.30;;;5.50;1.00;;;;;;5064211;28;20428;-73
2022/11/23 04:40:32;;;;;;;0.45;0.45;;;5.50;1.00;;;;;;5067223;28;20965;-73
2022/11/23 04:42:58;;;;;;;0.17;0.17;;;5.40;1.00;;;;;;5059827;28;20425;-73
2022/11/23 04:45:30;;;;;;;3.25;0.30;;;5.40;1.00;;;;;;5064367;28;21109;-73
2022/11/23 04:47:57;;;;;;;0.95;0.35;;;5.40;1.00;;;;;;5056685;28;20485;-73
2022/11/23 04:50:23;;;;;;;0.28;0.28;;;5.40;1.00;;;;;;5066584;28;20901;-73
2022/11/23 04:52:50;;;;;;;0.10;0.10;;;5.40;1.00;;;;;;5065717;28;20432;-74
2022/11/23 04:55:17;;;;;;;0.20;0.20;;;5.40;1.00;;;;;;5061833;28;20427;-74
2022/11/23 04:57:44;;;;;;;0.50;0.50;;;5.40;1.00;;;;;;5065527;28;20421;-74
2022/11/23 05:00:13;;;;;;;0.10;0.10;;;5.40;1.00;;;;;;5070964;28;20511;-74
2022/11/23 05:02:40;;;;;;;0.47;0.30;;;5.40;1.00;;;;;;5067324;28;20423;-74
2022/11/23 05:05:08;;;;;;;0.90;0.30;;;5.40;1.00;;;;;;5069687;28;20428;-74
2022/11/23 05:07:35;;;;;;;0.10;0.10;;;5.40;1.00;;;;;;5068606;28;20433;-74
2022/11/23 05:10:03;;;;;;;0.35;0.35;;;5.40;1.00;;;;;;5069094;28;20450;-74
2022/11/23 05:12:30;;;;;;;0.20;0.20;;;5.40;1.00;;;;;;5070804;28;20427;-74
2022/11/23 05:14:57;;;;;;;0.30;0.30;;;5.40;1.00;;;;;;5065225;28;20431;-74
2022/11/23 05:17:24;;;;;;;0.30;0.30;;;5.50;1.00;;;;;;5061878;28;20434;-74
2022/11/23 05:19:50;;;;;;;1.20;0.20;;;5.50;1.00;;;;;;5076627;28;20436;-74
2022/11/23 05:22:17;;;;;;;1.80;0.30;;;5.40;1.00;;;;;;5055785;28;20457;-73
2022/11/23 05:24:44;;;;;;;0.20;0.20;;;5.40;1.00;;;;;;5073166;28;20841;-74
2022/11/23 05:27:11;;;;;;;0.10;0.10;;;5.50;1.00;;;;;;5066303;28;20418;-74
2022/11/23 05:29:39;;;;;;;0.10;0.10;;;5.50;1.00;;;;;;5058313;28;20490;-73
2022/11/23 05:32:06;;;;;;;13.30;0.40;;;5.50;1.00;;;;;;5075811;28;20882;-74
2022/11/23 05:34:33;;;;;;;0.20;0.20;;;5.50;1.00;;;;;;5052634;28;20516;-74
2022/11/23 05:36:59;;;;;;;0.20;0.20;;;5.50;1.00;;;;;;5061455;28;20460;-73
2022/11/23 05:39:26;;;;;;;0.10;0.10;;;5.40;1.00;;;;;;5062973;28;20442;-73
2022/11/23 05:41:56;;;;;;;0.28;0.28;;;5.40;1.00;;;;;;5065309;28;20427;-74
2022/11/23 05:44:23;;;;;;;0.10;0.10;;;5.40;1.00;;;;;;5059705;28;20437;-74
2022/11/23 05:46:49;;;;;;;0.20;0.20;;;5.40;1.00;;;;;;5057539;28;20440;-74
2022/11/23 05:49:16;;;;;;;0.10;0.10;;;5.40;1.00;;;;;;5055167;28;21157;-74
2022/11/23 05:51:46;;;;;;;0.50;0.50;;;5.40;1.00;;;;;;5050291;28;20428;-74
2022/11/23 05:54:13;;;;;;;1.33;0.43;;;5.40;21.50;;;;;;5058146;28;20436;-74
2022/11/23 05:56:40;;;;;;;0.73;0.73;;;5.40;18.40;;;;;;5065199;28;20431;-74
2022/11/23 05:59:06;;;;;;;0.20;0.20;;;5.50;1.00;;;;;;5065428;28;20438;-74
2022/11/23 06:01:36;;;;;;;0.32;0.32;;;5.50;1.00;;;;;;5064126;28;20427;-74
2022/11/23 06:04:05;;;;;;;0.60;0.40;;;5.50;1.00;;;;;;5069009;28;20437;-74
2022/11/23 06:06:35;;;;;;;0.25;0.25;;;5.50;1.00;;;;;;5050398;28;20467;-74
2022/11/23 06:09:01;;;;;;;0.10;0.10;;;5.50;1.00;;;;;;5056433;28;20432;-74
2022/11/23 06:11:30;;;;;;;0.90;0.20;;;5.50;1.00;;;;;;5057419;28;20427;-74
2022/11/23 06:13:57;;;;;;;0.10;0.10;;;5.50;1.00;;;;;;5061691;28;20427;-74
2022/11/23 06:16:23;;;;;;;0.28;0.28;;;5.50;1.00;;;;;;5068194;28;20426;-74
2022/11/23 06:18:50;;;;;;;0.30;0.30;;;5.50;1.00;;;;;;5050774;28;20764;-74
2022/11/23 06:21:17;;;;;;;0.40;0.32;;;5.50;1.00;;;;;;5052489;28;20437;-74
2022/11/23 06:23:46;;;;;;;0.20;0.20;;;5.50;1.00;;;;;;5058506;28;20423;-74
2022/11/23 06:26:13;;;;;;;0.35;0.35;;;5.50;1.00;;;;;;5055653;28;20422;-74
2022/11/23 06:28:46;;;;;;;0.40;0.40;;;5.50;1.00;;;;;;5061029;28;20778;-74
2022/11/23 06:31:15;;;;;;;0.50;0.30;;;5.50;1.00;;;;;;5055706;28;20437;-74
2022/11/23 06:33:41;;;;;;;1.10;0.45;;;5.50;1.00;;;;;;5051886;28;20421;-74
2022/11/23 06:36:10;;;;;;;0.30;0.30;;;5.50;5.80;;;;;;5061553;28;20428;-73
2022/11/23 06:38:36;;;;;;;0.10;0.10;;;5.50;11.60;;;;;;5063823;28;20434;-72
2022/11/23 06:41:03;;;;;;;0.17;0.17;;;5.50;1.00;;;;;;5053111;28;20444;-73
2022/11/23 06:43:33;;;;;;;1.40;0.73;;;5.40;1.00;;;;;;5078030;28;20479;-74
2022/11/23 06:46:04;;;;;;;4.32;0.30;;;5.50;9.00;;;;;;5067875;28;20915;-73
2022/11/23 06:48:31;;;;;;;0.10;0.10;;;5.40;19.90;;;;;;5060191;28;20452;-73
2022/11/23 06:50:59;;;;;;;0.40;0.40;;;5.40;58.80;;;;;;5059620;28;20421;-73
2022/11/23 06:53:27;;;;;;;0.43;0.43;;;5.30;85.70;;;;;;5054620;28;20425;-72
2022/11/23 06:56:00;;;;;;;0.30;0.25;;;5.30;99.90;;;;;;5076375;28;20531;-73
2022/11/23 06:58:27;;;;;;;0.50;0.40;;;5.40;99.90;;;;;;5079767;28;20446;-73
2022/11/23 07:00:59;;;;;;;0.10;0.10;;;5.30;99.90;;;;;;5068524;28;20481;-73
2022/11/23 07:03:26;;;;;;;0.20;0.20;;;5.40;99.90;;;;;;5058086;28;20431;-74
2022/11/23 07:05:54;;;;;;;0.10;0.10;;;5.30;99.90;;;;;;5064755;28;20489;-73
2022/11/23 07:08:21;;;;;;;0.40;0.40;;;5.30;99.90;;;;;;5063298;28;20509;-74
2022/11/23 07:10:47;;;;;;;0.30;0.30;;;5.40;99.90;;;;;;5065469;28;20431;-74
2022/11/23 07:13:14;;;;;;;0.50;0.20;;;5.40;99.90;;;;;;5064905;28;20438;-74
2022/11/23 07:15:42;;;;;;;1.10;0.60;;;5.40;99.90;;;;;;5065066;28;20433;-74
2022/11/23 07:18:10;;;;;;;0.30;0.30;;;5.40;99.90;;;;;;5063936;28;20746;-73
2022/11/23 07:20:37;;;;;;;0.13;0.13;;;5.40;99.90;;;;;;5079259;28;20439;-74
2022/11/23 07:23:06;;;;;;;0.17;0.17;;;5.50;99.90;;;;;;5062103;28;20439;-73
2022/11/23 07:25:37;;;;;;;0.40;0.40;;;5.50;99.90;;;;;;5058599;28;20433;-74
2022/11/23 07:28:05;;;;;;;0.30;0.30;;;5.50;99.90;;;;;;5063292;28;20439;-73
2022/11/23 07:30:34;;;;;;;1.50;0.40;;;5.50;99.90;;;;;;5070821;28;20833;-73
2022/11/23 07:33:07;;;;;;;0.20;0.20;;;5.60;99.90;;;;;;5068777;28;20423;-73
2022/11/23 07:35:35;;;;;;;0.38;0.38;;;5.60;99.90;;;;;;5062970;28;20451;-74
2022/11/23 07:38:07;;;;;;;0.30;0.30;;;5.60;99.90;;;;;;5063969;28;20431;-73
2022/11/23 07:40:38;;;;;;;0.30;0.30;;;5.70;99.90;;;;;;5054048;28;20431;-74
2022/11/23 07:43:05;;;;;;;0.28;0.28;;;5.70;99.90;;;;;;5057841;28;20442;-74
2022/11/23 07:45:35;;;;;;;1.00;0.43;;;5.80;99.90;;;;;;5067507;28;22507;-73
2022/11/23 07:48:05;;;;;;;0.25;0.25;;;5.80;99.90;;;;;;5070804;28;20461;-73
2022/11/23 07:50:32;;;;;;;0.30;0.30;;;5.90;99.90;;;;;;5056496;28;20435;-73
2022/11/23 07:53:01;;;;;;;0.40;0.40;;;5.90;99.90;;;;;;5070675;28;20480;-73
2022/11/23 07:55:29;;;;;;;0.20;0.20;;;6.00;99.90;;;;;;5061751;28;20825;-73
2022/11/23 07:57:56;;;;;;;0.27;0.27;;;6.00;99.90;;;;;;5072233;28;20510;-73
2022/11/23 08:00:25;;;;;;;0.13;0.13;;;6.00;99.90;;;;;;5077527;28;20445;-73
2022/11/23 08:02:52;;;;;;;0.10;0.10;;;6.00;99.90;;;;;;5066455;28;20791;-73
2022/11/23 08:05:39;;;;;;;0.20;0.20;;;6.00;99.90;;;;;;5058587;28;20437;-73
2022/11/23 08:08:06;;;;;;;0.30;0.30;;;6.10;99.90;;;;;;5068599;28;20427;-75
2022/11/23 08:10:33;;;;;;;0.15;0.15;;;6.10;99.90;;;;;;5069747;28;21120;-74
2022/11/23 08:13:07;;;;;;;0.50;0.50;;;6.10;1.00;;;;;;5059126;28;20480;-74
2022/11/23 08:15:35;;;;;;;0.50;0.40;;;6.10;1.00;;;;;;5062529;28;20436;-74
2022/11/23 08:18:04;;;;;;;0.98;0.52;;;6.10;27.80;;;;;;5059912;28;20419;-74
2022/11/23 08:20:32;;;;;;;1.50;0.40;;;6.20;99.90;;;;;;5070203;28;20802;-74
2022/11/23 08:22:59;;;;;;;0.40;0.40;;;6.20;1.00;;;;;;5069005;28;20427;-73
2022/11/23 08:25:27;;;;;;;0.47;0.47;;;6.20;1.00;;;;;;5067980;28;20427;-73
2022/11/23 08:27:55;;;;;;;1.80;1.00;;;6.30;1.00;;;;;;5062281;28;20555;-74
2022/11/23 08:30:22;;;;;;;1.70;0.40;;;6.40;99.90;;;;;;5060689;28;20438;-74
2022/11/23 08:32:48;;;;;;;0.30;0.30;;;6.60;99.90;;;;;;5061107;28;20467;-73
2022/11/23 08:35:15;;;;;;;0.98;0.40;;;6.80;99.90;;;;;;5064145;28;20511;-74
2022/11/23 08:37:42;;;;;;;1.00;0.60;;;6.90;29.10;;;;;;5064313;28;20424;-73
2022/11/23 08:40:09;;;;;;;0.70;0.70;;;7.10;99.90;;;;;;5052537;28;20445;-74
2022/11/23 08:42:36;;;;;;;0.45;0.45;;;7.30;1.00;;;;;;5059187;28;20436;-74
2022/11/23 08:45:04;;;;;;;0.20;0.20;;;7.30;21.90;;;;;;5063955;28;20447;-73
2022/11/23 08:47:32;;;;;;;0.57;0.57;;;7.60;1.00;;;;;;5058388;28;20425;-74
2022/11/23 08:49:59;;;;;;;1.90;0.70;;;7.60;99.90;;;;;;5069005;28;20617;-73
2022/11/23 08:52:26;;;;;;;0.65;0.65;;;7.80;99.90;;;;;;5062969;28;20428;-74
2022/11/23 08:54:53;;;;;;;0.55;0.55;;;7.90;1.00;;;;;;5053817;28;20425;-73
2022/11/23 08:57:23;;;;;;;0.55;0.52;;;7.90;1.00;;;;;;5060156;28;20512;-74
2022/11/23 08:59:50;;;;;;;1.30;0.88;;;7.90;1.00;;;;;;5058623;28;20429;-74
2022/11/23 09:02:16;;;;;;;4.50;0.90;;;8.10;21.00;;;;;;5064678;28;20471;-74
2022/11/23 09:04:43;;;;;;;0.60;0.50;;;8.20;97.90;;;;;;5068285;28;20439;-74
2022/11/23 09:07:10;;;;;;;1.10;0.30;;;8.10;99.90;;;;;;5064093;28;20445;-73
2022/11/23 09:09:40;;;;;;;2.20;0.50;;;8.00;99.90;;;;;;5068512;28;20781;-73
2022/11/23 09:12:09;;;;;;;1.80;0.60;;;8.10;99.90;;;;;;5065071;28;20432;-74
2022/11/23 09:14:35;;;;;;;0.50;0.50;;;8.30;99.90;;;;;;5062065;28;20530;-74
2022/11/23 09:17:02;;;;;;;2.63;0.35;;;8.40;99.90;;;;;;5083494;28;21039;-74
2022/11/23 09:19:29;;;;;;;0.52;0.50;;;8.50;99.90;;;;;;5059297;28;20471;-73
2022/11/23 09:21:56;;;;;;;0.80;0.60;;;8.50;99.90;;;;;;5061105;28;20429;-73
2022/11/23 09:24:24;;;;;;;0.45;0.45;;;8.70;99.90;;;;;;5057334;28;20579;-73
2022/11/23 09:26:51;;;;;;;0.17;0.17;;;8.70;99.90;;;;;;5060647;28;20425;-74
2022/11/23 09:29:18;;;;;;;1.00;0.40;;;8.50;99.90;;;;;;5055699;28;20443;-74
2022/11/23 09:31:44;;;;;;;0.30;0.30;;;8.50;99.90;;;;;;5057698;28;20428;-72
2022/11/23 09:34:15;;;;;;;0.80;0.40;;;8.50;99.90;;;;;;5058339;28;20437;-71
2022/11/23 09:36:41;;;;;;;1.70;0.75;;;8.60;99.90;;;;;;5061449;28;20908;-72
2022/11/23 09:39:08;;;;;;;0.45;0.45;;;8.70;99.90;;;;;;5063902;28;20430;-72
2022/11/23 09:42:01;;;;;;;1.20;0.75;;;8.70;99.90;;;;;;5061746;28;20428;-72
2022/11/23 09:44:42;;;;;;;0.20;0.20;;;8.90;99.90;;;;;;5055352;28;20430;-72
2022/11/23 09:47:39;;;;;;;0.60;0.60;;;9.00;99.90;;;;;;5062181;28;20826;-72
2022/11/23 09:50:06;;;;;;;0.30;0.30;;;8.90;99.90;;;;;;5062033;28;20452;-72
2022/11/23 09:52:35;;;;;;;2.40;0.40;;;9.10;99.90;;;;;;5056571;28;20433;-71
2022/11/23 09:55:14;;;;;;;0.45;0.45;;;9.20;99.90;;;;;;5061755;28;20508;-73
2022/11/23 09:57:44;;;;;;;0.40;0.40;;;9.20;99.90;;;;;;5056284;28;20804;-72
2022/11/23 10:00:22;;;;;;;0.30;0.30;;;9.40;99.90;;;;;;5069370;28;20906;-72
2022/11/23 10:02:49;;;;;;;0.50;0.50;;;9.60;99.90;;;;;;5062983;28;21166;-72
2022/11/23 10:05:26;;;;;;;2.47;0.68;;;9.60;99.90;;;;;;5058527;28;20429;-72
2022/11/23 10:07:58;;;;;;;0.30;0.30;;;9.50;99.90;;;;;;5057912;28;20521;-72
2022/11/23 10:10:35;;;;;;;0.30;0.30;;;9.50;99.90;;;;;;5062541;28;20441;-72
2022/11/23 10:13:22;;;;;;;1.40;0.80;;;9.70;99.90;;;;;;5061489;28;20431;-72
2022/11/23 10:16:14;;;;;;;5.63;0.50;;;9.90;99.90;;;;;;5056111;28;20942;-72
2022/11/23 10:18:57;;;;;;;1.50;0.60;;;9.90;99.90;;;;;;5055189;28;20497;-72
2022/11/23 10:21:48;;;;;;;0.63;0.63;;;9.80;99.90;;;;;;5059712;28;20485;-72
2022/11/23 10:24:18;;;;;;;0.20;0.20;;;10.00;99.90;;;;;;5053889;28;20439;-72
2022/11/23 10:26:48;;;;;;;0.82;0.35;;;10.50;99.90;;;;;;5064231;28;21162;-71
2022/11/23 10:29:25;;;;;;;1.25;0.77;;;10.50;99.90;;;;;;5061456;28;20490;-72
2022/11/23 10:31:53;;;;;;;1.40;0.60;;;10.80;99.90;;;;;;5057560;28;20445;-72
2022/11/23 10:34:40;;;;;;;0.20;0.20;;;11.00;99.90;;;;;;5062297;28;20440;-72
2022/11/23 10:37:16;;;;;;;0.37;0.37;;;11.10;99.90;;;;;;5047243;28;21228;-71
2022/11/23 10:39:43;;;;;;;0.90;0.60;;;11.00;99.90;;;;;;5065443;28;20895;-71
2022/11/23 10:42:35;;;;;;;0.38;0.38;;;10.80;99.90;;;;;;5057161;28;20436;-71
2022/11/23 10:45:03;;;;;;;0.20;0.20;;;10.70;99.90;;;;;;5056919;28;20942;-71
2022/11/23 10:47:47;;;;;;;0.75;0.40;;;10.80;99.90;;;;;;5075318;28;21081;-72
2022/11/23 10:50:19;;;;;;;2.70;0.40;;;11.10;99.90;;;;;;5068420;28;20471;-72
2022/11/23 10:52:51;;;;;;;0.30;0.30;;;11.30;99.90;;;;;;5067061;28;20514;-72
2022/11/23 10:55:21;;;;;;;0.50;0.40;;;11.40;99.90;;;;;;5056271;28;20506;-72
2022/11/23 10:57:48;;;;;;;1.40;0.40;;;11.50;99.90;;;;;;5059388;28;20428;-72
2022/11/23 11:00:17;;;;;;;1.05;0.45;;;11.80;99.90;;;;;;5058266;28;20504;-72
2022/11/23 11:02:46;;;;;;;1.60;0.50;;;11.70;99.90;;;;;;5056060;28;20811;-72
2022/11/23 11:05:25;;;;;;;3.50;0.70;;;11.60;99.90;;;;;;5061889;28;20485;-71
2022/11/23 11:08:20;;;;;;;0.40;0.40;;;11.30;99.90;;;;;;5066371;28;20466;-71
2022/11/23 11:11:01;;;;;;;0.93;0.63;;;11.60;99.90;;;;;;5063989;28;20510;-71
2022/11/23 11:13:40;;;;;;;0.45;0.45;;;11.60;99.90;;;;;;5063459;28;20430;-72
2022/11/23 11:16:47;;;;;;;0.30;0.30;;;11.80;99.90;;;;;;5061186;28;20438;-72
2022/11/23 11:19:34;;;;;;;1.47;0.40;;;11.40;99.90;;;;;;5025658;28;20466;-72
2022/11/23 11:22:23;;;;;;;0.80;0.40;;;11.30;99.90;;;;;;5014351;28;21079;-71
2022/11/23 11:24:50;;;;;;;0.50;0.30;;;11.40;99.90;;;;;;5023990;28;20435;-71
2022/11/23 11:27:21;;;;;;;0.35;0.35;;;11.30;99.90;;;;;;5014251;28;20532;-72
2022/11/23 11:30:13;;;;;;;0.20;0.20;;;11.30;99.90;;;;;;5020281;28;20446;-72
2022/11/23 11:33:10;;;;;;;0.38;0.38;;;11.40;99.90;;;;;;5023241;28;20438;-72
2022/11/23 11:35:42;;;;;;;3.80;0.40;;;11.70;99.90;;;;;;5029556;28;20956;-71
2022/11/23 11:38:28;;;;;;;0.60;0.47;;;11.70;99.90;;;;;;5003604;28;20601;-71
2022/11/23 11:40:57;;;;;;;0.47;0.47;;;11.90;99.90;;;;;;5024904;28;20522;-71
2022/11/23 11:43:48;;;;;;;0.10;0.10;;;11.70;99.90;;;;;;5029804;28;20426;-71
2022/11/23 11:46:28;;;;;;;0.17;0.17;;;11.70;99.90;;;;;;5016055;28;20522;-71
2022/11/23 11:49:19;;;;;;;0.20;0.20;;;11.50;99.90;;;;;;5024637;28;20458;-71
2022/11/23 11:52:14;;;;;;;0.30;0.30;;;11.60;99.90;;;;;;5060851;28;20483;-72
2022/11/23 11:55:03;;;;;;;1.00;0.40;;;11.60;99.90;;;;;;5054574;28;20918;-71
2022/11/23 11:57:42;;;;;;;0.28;0.22;;;11.50;99.90;;;;;;5065858;28;20519;-71
2022/11/23 12:00:17;;;;;;;0.90;0.30;;;11.50;99.90;;;;;;5061577;28;20439;-71
2022/11/23 12:03:07;;;;;;;0.80;0.60;;;11.50;99.90;;;;;;5063892;28;20457;-71
2022/11/23 12:05:47;;;;;;;0.30;0.30;;;11.40;99.90;;;;;;5060669;28;20435;-71
2022/11/23 12:08:42;;;;;;;1.50;0.60;;;11.30;99.90;;;;;;5058228;28;20958;-71
2022/11/23 12:11:12;;;;;;;1.20;0.30;;;11.50;99.90;;;;;;5060430;28;20448;-72
2022/11/23 12:13:42;;;;;;;0.60;0.60;;;11.60;99.90;;;;;;5060007;28;20436;-72
2022/11/23 12:16:50;;;;;;;0.50;0.50;;;11.50;99.90;;;;;;5069977;28;20435;-72
2022/11/23 12:19:36;;;;;;;0.40;0.25;;;11.60;99.90;;;;;;5059622;28;21214;-72
2022/11/23 12:22:21;;;;;;;0.90;0.50;;;11.60;99.90;;;;;;5066694;28;20453;-72
2022/11/23 12:25:10;;;;;;;0.20;0.20;;;11.60;99.90;;;;;;5052088;28;20433;-71
2022/11/23 12:27:48;;;;;;;0.32;0.32;;;11.40;99.90;;;;;;5056011;28;21030;-72
2022/11/23 12:30:29;;;;;;;0.20;0.20;;;11.40;99.90;;;;;;5059381;28;20439;-72
2022/11/23 12:33:22;;;;;;;0.20;0.20;;;11.40;99.90;;;;;;5065988;28;20436;-72
2022/11/23 12:36:12;;;;;;;0.30;0.20;;;11.60;99.90;;;;;;5072696;28;20458;-72
2022/11/23 12:39:03;;;;;;;0.40;0.20;;;11.20;99.90;;;;;;5061338;28;20429;-72
2022/11/23 12:41:46;;;;;;;0.33;0.27;;;11.30;99.90;;;;;;5064293;28;20433;-72
2022/11/23 12:44:30;;;;;;;0.30;0.20;;;11.60;99.90;;;;;;5061075;28;20514;-71
2022/11/23 12:46:57;;;;;;;0.20;0.20;;;11.70;99.90;;;;;;5065389;28;20527;-71
2022/11/23 12:49:43;;;;;;;0.50;0.40;;;11.50;99.90;;;;;;5063983;28;20431;-71
2022/11/23 12:52:28;;;;;;;0.40;0.17;;;11.10;99.90;;;;;;5064949;28;20442;-71
2022/11/23 12:55:22;;;;;;;0.20;0.20;;;11.20;99.90;;;;;;5071699;28;20427;-71
2022/11/23 12:57:59;;;;;;;2.15;0.35;;;11.40;99.90;;;;;;5080693;28;20433;-72
2022/11/23 13:00:40;;;;;;;0.10;0.10;;;11.40;99.90;;;;;;5056734;28;20430;-71
2022/11/23 13:03:32;;;;;;;0.43;0.43;;;11.50;99.90;;;;;;5064231;28;20964;-72
2022/11/23 13:06:37;;;;;;;0.20;0.20;;;11.50;99.90;;;;;;5067963;28;20495;-72
2022/11/23 13:09:41;;;;;;;3.70;0.40;;;11.30;99.90;;;;;;5068839;28;20531;-71
2022/11/23 13:12:36;;;;;;;0.17;0.17;;;10.80;99.90;;;;;;5069855;28;20432;-71
2022/11/23 13:15:03;;;;;;;0.27;0.27;;;10.20;99.90;;;;;;5067975;28;20446;-71
2022/11/23 13:17:59;;;;;;;0.40;0.40;;;10.10;99.90;;;;;;5063662;28;20520;-71
2022/11/23 13:20:26;;;;;;;0.30;0.30;;;10.00;99.90;;;;;;5059901;28;20423;-71
2022/11/23 13:22:56;;;;;;;0.40;0.40;;;9.90;99.90;;;;;;5064789;28;20431;-70